Ruby Princess — ZCDY2 — position and weather

sailwx.info

Track history (hours):
 
Tides and Currents Weather Stations Pressure Air Temp Water Temp Dewpoint Dewpoint Depression Visibility Wind Speed Wind Dir Waves Ship Positions

Ruby Princess

Last reported at 2018-Sep-17 07:00 UTC. Time now 2018-Sep-19 03:02 UTC.
Position N 55°00' W 134°06'.

Length 289 m; draft 8.7 m.

Type: Ship. MMSI: 310567000.

Wind from 260 at 13 knots

Barometer 1020.4 mb
Air temperature 12.0 ° C
Visibility: greater than 10.8 NM
Dewpoint 12.0 ° C
Water temperature 12.0 ° C

Date/timePositionNaut miles runAvg speedWind from/ knotsBaromVisibWave heightAir tempDewpointWater temp
2018-Sep-17 07:00N 55°00' W 134°06'25721.4 260 / 131020.410.8 12.012.012.0
2018-Sep-16 19:00N 51°18' W 130°30'7721.2 290 / 201013.710.8 13.011.115.0
2018-Sep-16 15:22N 50°27' W 128°59'11821.5
2018-Sep-16 09:52N 49°10' W 126°40'822.1
2018-Sep-16 09:30N 49°05' W 126°31'1022.8
2018-Sep-16 09:03N 48°59' W 126°18'123.6
2018-Sep-16 09:00N 48°59' W 126°17'1223.2
2018-Sep-16 08:30N 48°52' W 126°02'1023.1
2018-Sep-16 08:03N 48°46' W 125°49'122.9
2018-Sep-16 08:00N 48°45' W 125°48'1122.5
2018-Sep-16 07:30N 48°39' W 125°33'1022.7
2018-Sep-16 07:03N 48°34' W 125°20'122.5
2018-Sep-16 07:00N 48°33' W 125°18'1122.0
2018-Sep-16 06:30N 48°31' W 125°02'1022.9
2018-Sep-16 06:04N 48°31' W 124°47'123.1
2018-Sep-16 06:01N 48°31' W 124°45'1223.3
2018-Sep-16 05:30N 48°27' W 124°29'1022.7
2018-Sep-16 05:03N 48°23' W 124°15'222.2
2018-Sep-16 04:59N 48°22' W 124°13'1122.7
2018-Sep-16 04:31N 48°18' W 123°57'1222.6
2018-Sep-16 03:58N 48°16' W 123°40'1120.4
2018-Sep-16 03:27N 48°12' W 123°25'3 8.7
2018-Sep-16 03:03N 48°09' W 123°22'1 9.4
2018-Sep-16 02:59N 48°09' W 123°22'917.8
2018-Sep-16 02:30N 48°12' W 123°10'1119.7
2018-Sep-16 01:57N 48°12' W 122°54'3883.5
2018-Sep-16 01:30N 47°38' W 122°27'3 6.3
2018-Sep-16 01:02N 47°37' W 122°23'21111.8
2018-Sep-16 00:51N 47°58' W 122°33'719.5
2018-Sep-16 00:31N 47°52' W 122°28'920.1
2018-Sep-16 00:04N 47°43' W 122°27'120.0
2018-Sep-16 00:00N 47°42' W 122°27'510.6
2018-Sep-15 23:30N 47°37' W 122°23'0 0.8
2018-Sep-15 23:02N 47°38' W 122°23'0 0.0
2018-Sep-15 22:59N 47°38' W 122°23'0 0.0
2018-Sep-15 22:28N 47°38' W 122°23'0 0.0
2018-Sep-15 22:00N 47°38' W 122°23'0 0.0
2018-Sep-15 21:28N 47°38' W 122°23'0 0.0
2018-Sep-15 21:01N 47°38' W 122°23'0 0.0
2018-Sep-15 21:00N 47°38' W 122°23'0 0.0
2018-Sep-15 20:28N 47°38' W 122°23'0 0.0
2018-Sep-15 20:01N 47°38' W 122°23'0 0.0
2018-Sep-15 19:58N 47°38' W 122°23'0 0.0
2018-Sep-15 19:31N 47°38' W 122°23'0 0.1
2018-Sep-15 19:03N 47°38' W 122°23'0 0.7
2018-Sep-15 19:00N 47°38' W 122°23'0 0.1
2018-Sep-15 18:30N 47°38' W 122°23'0 0.1
2018-Sep-15 18:01N 47°38' W 122°23'0 0.0
2018-Sep-15 17:57N 47°38' W 122°23'0 0.0
2018-Sep-15 17:28N 47°38' W 122°23'0 0.0
2018-Sep-15 17:01N 47°38' W 122°23'0 0.0
2018-Sep-15 16:57N 47°38' W 122°23'0 0.0
2018-Sep-15 16:31N 47°38' W 122°23'0 0.0
2018-Sep-15 16:03N 47°38' W 122°23'0 0.0
2018-Sep-15 16:00N 47°38' W 122°23'0 0.0
2018-Sep-15 15:30N 47°38' W 122°23'0 0.0
2018-Sep-15 15:00N 47°38' W 122°23'0 0.0
2018-Sep-15 14:30N 47°38' W 122°23'0 0.0
2018-Sep-15 13:59N 47°38' W 122°23'0 0.0
2018-Sep-15 13:29N 47°38' W 122°23'0 0.0
2018-Sep-15 13:03N 47°38' W 122°23'0 0.0
2018-Sep-15 13:00N 47°38' W 122°23'1 2.7
2018-Sep-15 12:30N 47°37' W 122°25'511.1
2018-Sep-15 12:03N 47°42' W 122°28'114.5
2018-Sep-15 12:00N 47°42' W 122°28'714.7
2018-Sep-15 11:30N 47°50' W 122°28'715.6
2018-Sep-15 11:03N 47°56' W 122°32'116.0
2018-Sep-15 11:00N 47°57' W 122°33'1714.7
2018-Sep-15 09:50N 48°11' W 122°48'515.8
2018-Sep-15 09:30N 48°11' W 122°56'715.7
2018-Sep-15 09:03N 48°12' W 123°07'115.7
2018-Sep-15 09:00N 48°12' W 123°08'714.8
2018-Sep-15 08:30N 48°10' W 123°19'1011.0
2018-Sep-15 07:38N 48°17' W 123°30'319.5
2018-Sep-15 07:27N 48°20' W 123°27'512.9
2018-Sep-15 07:03N 48°25' W 123°24'0 3.2
2018-Sep-15 06:55N 48°25' W 123°24'0 0.5
2018-Sep-15 06:11N 48°25' W 123°23'0 0.0
2018-Sep-15 05:59N 48°25' W 123°23'0 0.0
2018-Sep-15 01:54N 48°25' W 123°23'2 3.9
2018-Sep-15 01:30N 48°24' W 123°25'511.5
2018-Sep-15 01:03N 48°19' W 123°25'113.5
2018-Sep-15 01:00N 48°18' W 123°25'1417.4
2018-Sep-15 00:12N 48°14' W 123°45'422.9
2018-Sep-15 00:02N 48°14' W 123°50'124.0
2018-Sep-15 00:00N 48°14' W 123°51'1122.7
2018-Sep-14 23:30N 48°18' W 124°07'1021.7
2018-Sep-14 23:03N 48°22' W 124°21'121.6
2018-Sep-14 23:00N 48°22' W 124°22'1121.3
2018-Sep-14 22:30N 48°27' W 124°37'1021.5
2018-Sep-14 22:03N 48°29' W 124°51'222.1
2018-Sep-14 21:58N 48°29' W 124°54'1021.7
2018-Sep-14 21:29N 48°29' W 125°10'921.9
2018-Sep-14 21:03N 48°34' W 125°22'122.0
2018-Sep-14 21:00N 48°34' W 125°24'1121.8
2018-Sep-14 20:30N 48°40' W 125°38'1021.3
2018-Sep-14 20:03N 48°45' W 125°50'121.1
2018-Sep-14 20:00N 48°45' W 125°52'1121.2
2018-Sep-14 19:30N 48°51' W 126°05'1021.8
2018-Sep-14 19:03N 48°57' W 126°17'122.0
2018-Sep-14 19:00N 48°57' W 126°19'1122.2
2018-Sep-14 18:30N 49°04' W 126°32'1122.9
2018-Sep-14 18:02N 49°11' W 126°45'122.9
2018-Sep-14 18:01N 49°11' W 126°46'8621.8
2018-Sep-14 14:02N 50°08' W 128°25'121.6
2018-Sep-14 14:00N 50°09' W 128°26'2421.6
2018-Sep-14 12:54N 50°28' W 128°49'821.7
2018-Sep-14 12:31N 50°35' W 128°57'1022.4
2018-Sep-14 12:03N 50°43' W 129°07'121.7
2018-Sep-14 12:00N 50°44' W 129°08'1122.1
2018-Sep-14 11:31N 50°53' W 129°16'1022.2
2018-Sep-14 11:03N 51°02' W 129°22'122.3
2018-Sep-14 11:00N 51°03' W 129°23'1121.8
2018-Sep-14 10:30N 51°13' W 129°30'1021.9
2018-Sep-14 10:03N 51°22' W 129°36'122.1
2018-Sep-14 10:00N 51°24' W 129°37'1122.3
2018-Sep-14 09:30N 51°34' W 129°44'920.7
2018-Sep-14 09:03N 51°42' W 129°49'120.4
2018-Sep-14 09:00N 51°43' W 129°50'1121.3
2018-Sep-14 08:30N 51°53' W 129°57'1021.8
2018-Sep-14 08:03N 52°02' W 130°03'121.7
2018-Sep-14 08:01N 52°03' W 130°04'1222.0
2018-Sep-14 07:27N 52°15' W 130°12'4822.1
2018-Sep-14 05:15N 52°59' W 130°43'522.6
2018-Sep-14 05:01N 53°04' W 130°46'023.4
2018-Sep-14 05:00N 53°04' W 130°46'1122.1
2018-Sep-14 04:29N 53°15' W 130°54'1122.2
2018-Sep-14 03:59N 53°25' W 131°01'1222.8
2018-Sep-14 03:27N 53°37' W 131°01'922.4
2018-Sep-14 03:03N 53°46' W 131°02'121.9
2018-Sep-14 03:00N 53°47' W 131°02'1121.5
2018-Sep-14 02:30N 53°58' W 131°02'921.1
2018-Sep-14 02:03N 54°08' W 131°02'121.1
2018-Sep-14 02:00N 54°09' W 131°02'1121.3
2018-Sep-14 01:30N 54°19' W 131°07'1020.9
2018-Sep-14 01:02N 54°27' W 131°16'121.3
2018-Sep-14 01:01N 54°28' W 131°16'1121.7
2018-Sep-14 00:30N 54°37' W 131°26'195 9.1
2018-Sep-13 03:00N 57°18' W 134°42'5322.2 090 / 61015.210.8 14.512.711.0
2018-Sep-13 00:36N 58°08' W 135°14'920.0
2018-Sep-13 00:10N 58°13' W 135°28'419.3
2018-Sep-12 23:57N 58°15' W 135°35'818.8
2018-Sep-12 23:30N 58°19' W 135°49'715.6
2018-Sep-12 23:03N 58°24' W 135°58'113.8
2018-Sep-12 23:00N 58°24' W 135°59'510.3
2018-Sep-12 22:30N 58°29' W 136°03'716.6
2018-Sep-12 22:03N 58°37' W 136°03'119.7
2018-Sep-12 22:00N 58°37' W 136°03'918.7
2018-Sep-12 21:30N 58°44' W 136°15'2 0.3
2018-Sep-12 15:58N 58°45' W 136°18'919.2
2018-Sep-12 15:30N 58°38' W 136°07'817.7
2018-Sep-12 15:03N 58°31' W 136°03'116.4
2018-Sep-12 15:00N 58°30' W 136°03'510.7
2018-Sep-12 14:30N 58°25' W 135°59'611.9
2018-Sep-12 14:00N 58°19' W 135°59'510.8
2018-Sep-12 13:30N 58°18' W 135°49'511.6
2018-Sep-12 13:03N 58°17' W 135°39'111.7
2018-Sep-12 12:59N 58°17' W 135°37'511.2
2018-Sep-12 12:30N 58°15' W 135°28'  
2018-Sep-10 03:00N 53°36' W 133°30'25221.2 040 / 34997.510.8 15.013.215.0
2018-Sep-09 15:07N 50°27' W 128°59'619.6
2018-Sep-09 14:50N 50°23' W 128°53'11221.0
2018-Sep-09 09:31N 49°11' W 126°41'122.1
2018-Sep-09 09:29N 49°10' W 126°40'921.9
2018-Sep-09 09:03N 49°05' W 126°29'122.2
2018-Sep-09 09:00N 49°04' W 126°27'1122.2
2018-Sep-09 08:30N 48°57' W 126°14'1022.3
2018-Sep-09 08:03N 48°52' W 126°01'122.8
2018-Sep-09 08:00N 48°51' W 125°60'1122.6
2018-Sep-09 07:30N 48°44' W 125°46'1022.5
2018-Sep-09 07:03N 48°39' W 125°33'122.2
2018-Sep-09 07:00N 48°38' W 125°32'1122.3
2018-Sep-09 06:30N 48°33' W 125°17'1021.5
2018-Sep-09 06:03N 48°31' W 125°02'121.4
2018-Sep-09 06:00N 48°31' W 125°01'1121.9
2018-Sep-09 05:30N 48°31' W 124°45'1022.9
2018-Sep-09 05:03N 48°27' W 124°30'122.9
2018-Sep-09 05:01N 48°27' W 124°28'1222.9
2018-Sep-09 04:30N 48°22' W 124°12'1023.0
2018-Sep-09 04:04N 48°18' W 123°58'122.8
2018-Sep-09 04:00N 48°18' W 123°56'1223.3
2018-Sep-09 03:30N 48°16' W 123°39'1020.7
2018-Sep-09 03:00N 48°12' W 123°25'713.5
2018-Sep-09 02:28N 48°10' W 123°15'819.6
2018-Sep-09 02:03N 48°13' W 123°02'120.0
2018-Sep-09 01:59N 48°12' W 123°01'2318.1
2018-Sep-09 00:44N 47°58' W 122°34'419.9
2018-Sep-09 00:30N 47°55' W 122°30'920.3
2018-Sep-09 00:03N 47°46' W 122°26'120.5
2018-Sep-09 00:00N 47°45' W 122°26'814.8
2018-Sep-08 23:29N 47°37' W 122°23'0 0.9
2018-Sep-08 23:01N 47°38' W 122°23'0 0.0
2018-Sep-08 23:00N 47°38' W 122°23'0 0.0
2018-Sep-08 22:30N 47°38' W 122°23'0 0.0
2018-Sep-08 22:03N 47°38' W 122°23'0 0.0
2018-Sep-08 21:58N 47°38' W 122°23'0 0.0
2018-Sep-08 21:30N 47°38' W 122°23'0 0.0
2018-Sep-08 21:03N 47°38' W 122°23'0 0.0
2018-Sep-08 21:00N 47°38' W 122°23'0 0.0
2018-Sep-08 20:30N 47°38' W 122°23'0 0.0
2018-Sep-08 20:03N 47°38' W 122°23'0 0.0
2018-Sep-08 20:00N 47°38' W 122°23'0 0.0
2018-Sep-08 19:29N 47°38' W 122°23'0 0.0
2018-Sep-08 19:03N 47°38' W 122°23'0 0.0
2018-Sep-08 19:00N 47°38' W 122°23'0 0.0
2018-Sep-08 18:29N 47°38' W 122°23'0 0.0
2018-Sep-08 18:01N 47°38' W 122°23'0 0.0
2018-Sep-08 17:58N 47°38' W 122°23'0 0.0
2018-Sep-08 17:30N 47°38' W 122°23'0 0.0
2018-Sep-08 17:03N 47°38' W 122°23'0 0.0
2018-Sep-08 16:59N 47°38' W 122°23'0 0.0
2018-Sep-08 16:28N 47°38' W 122°23'0 0.0
2018-Sep-08 16:02N 47°38' W 122°23'0 0.0
2018-Sep-08 15:58N 47°38' W 122°23'0 0.0
2018-Sep-08 15:29N 47°38' W 122°23'0 0.0
2018-Sep-08 15:01N 47°38' W 122°23'0 0.0
2018-Sep-08 14:58N 47°38' W 122°23'0 0.0
2018-Sep-08 14:00N 47°38' W 122°23'0 0.0
2018-Sep-08 13:30N 47°38' W 122°23'0 0.0
2018-Sep-08 13:03N 47°38' W 122°23'0 0.0
2018-Sep-08 13:00N 47°38' W 122°23'1 2.6
2018-Sep-08 12:30N 47°37' W 122°25'511.3
2018-Sep-08 12:03N 47°42' W 122°28'113.5
2018-Sep-08 12:00N 47°42' W 122°28'713.7
2018-Sep-08 11:30N 47°49' W 122°28'613.7
2018-Sep-08 11:03N 47°55' W 122°31'113.6
2018-Sep-08 11:00N 47°56' W 122°31'1213.2
2018-Sep-08 10:08N 48°06' W 122°40'113.9
2018-Sep-08 10:04N 48°07' W 122°41'115.7
2018-Sep-08 10:00N 48°07' W 122°42'816.9
2018-Sep-08 09:31N 48°11' W 122°53'917.3
2018-Sep-08 09:00N 48°12' W 123°06'917.9
2018-Sep-08 08:30N 48°10' W 123°19'510.7
2018-Sep-08 08:03N 48°11' W 123°26'113.8
2018-Sep-08 07:58N 48°11' W 123°28'816.7
2018-Sep-08 07:29N 48°19' W 123°27'611.8
2018-Sep-08 07:00N 48°25' W 123°24'1 0.1
2018-Sep-08 01:46N 48°25' W 123°23'0 1.5
2018-Sep-08 01:29N 48°25' W 123°24'410.4
2018-Sep-08 01:03N 48°20' W 123°24'113.7
2018-Sep-08 01:00N 48°20' W 123°24'812.9
2018-Sep-08 00:24N 48°14' W 123°32'720.3
2018-Sep-08 00:03N 48°13' W 123°42'120.5
2018-Sep-07 23:59N 48°14' W 123°45'1020.6
2018-Sep-07 23:30N 48°15' W 123°59'1021.5
2018-Sep-07 23:03N 48°19' W 124°13'120.8
2018-Sep-07 23:00N 48°19' W 124°14'1021.0
2018-Sep-07 22:31N 48°24' W 124°28'920.7
2018-Sep-07 22:04N 48°28' W 124°41'121.5
2018-Sep-07 22:01N 48°28' W 124°42'1121.8
2018-Sep-07 21:30N 48°29' W 124°59'1022.5
2018-Sep-07 21:03N 48°30' W 125°14'122.2
2018-Sep-07 21:00N 48°31' W 125°15'1122.0
2018-Sep-07 20:31N 48°36' W 125°30'1021.4
2018-Sep-07 20:03N 48°41' W 125°42'120.9
2018-Sep-07 20:00N 48°42' W 125°43'1020.9
2018-Sep-07 19:30N 48°47' W 125°57'1021.2
2018-Sep-07 19:04N 48°53' W 126°09'121.5
2018-Sep-07 19:01N 48°53' W 126°10'1121.6
2018-Sep-07 18:30N 48°60' W 126°23'1021.7
2018-Sep-07 18:03N 49°06' W 126°36'121.4
2018-Sep-07 18:01N 49°06' W 126°37'1121.7
2018-Sep-07 17:30N 49°13' W 126°50'1021.3
2018-Sep-07 17:02N 49°19' W 127°01'121.8
2018-Sep-07 16:59N 49°20' W 127°03'9522.4
2018-Sep-07 12:44N 50°27' W 128°48'523.4
2018-Sep-07 12:30N 50°31' W 128°53'1822.2
2018-Sep-07 11:43N 50°45' W 129°10'922.4
2018-Sep-07 11:18N 50°53' W 129°17'622.6
2018-Sep-07 11:03N 50°59' W 129°20'322.5
2018-Sep-07 10:54N 51°02' W 129°22'922.7
2018-Sep-07 10:30N 51°10' W 129°27'1022.4
2018-Sep-07 10:03N 51°19' W 129°34'122.4
2018-Sep-07 10:00N 51°20' W 129°34'1122.1
2018-Sep-07 09:30N 51°31' W 129°42'1022.9
2018-Sep-07 09:03N 51°40' W 129°48'  
Track history (hours):
 
Tides and Currents Weather Stations Pressure Air Temp Water Temp Dewpoint Dewpoint Depression Visibility Wind Speed Wind Dir Waves Ship Positions

Ruby Princess

Last reported at 2018-Sep-17 07:00 UTC. Time now 2018-Sep-19 03:02 UTC.
Position N 55°00' W 134°06'.

Length 289 m; draft 8.7 m.

Type: Ship. MMSI: 310567000.

Wind from 260 at 13 knots

Barometer 1020.4 mb
Air temperature 12.0 ° C
Visibility: greater than 10.8 NM
Dewpoint 12.0 ° C
Water temperature 12.0 ° C

Date/timePositionNaut miles runAvg speedWind from/ knotsBaromVisibWave heightAir tempDewpointWater temp
2018-Sep-17 07:00N 55°00' W 134°06'25721.4 260 / 131020.410.8 12.012.012.0
2018-Sep-16 19:00N 51°18' W 130°30'7721.2 290 / 201013.710.8 13.011.115.0
2018-Sep-16 15:22N 50°27' W 128°59'11821.5
2018-Sep-16 09:52N 49°10' W 126°40'822.1
2018-Sep-16 09:30N 49°05' W 126°31'1022.8
2018-Sep-16 09:03N 48°59' W 126°18'123.6
2018-Sep-16 09:00N 48°59' W 126°17'1223.2
2018-Sep-16 08:30N 48°52' W 126°02'1023.1
2018-Sep-16 08:03N 48°46' W 125°49'122.9
2018-Sep-16 08:00N 48°45' W 125°48'1122.5
2018-Sep-16 07:30N 48°39' W 125°33'1022.7
2018-Sep-16 07:03N 48°34' W 125°20'122.5
2018-Sep-16 07:00N 48°33' W 125°18'1122.0
2018-Sep-16 06:30N 48°31' W 125°02'1022.9
2018-Sep-16 06:04N 48°31' W 124°47'123.1
2018-Sep-16 06:01N 48°31' W 124°45'1223.3
2018-Sep-16 05:30N 48°27' W 124°29'1022.7
2018-Sep-16 05:03N 48°23' W 124°15'222.2
2018-Sep-16 04:59N 48°22' W 124°13'1122.7
2018-Sep-16 04:31N 48°18' W 123°57'1222.6
2018-Sep-16 03:58N 48°16' W 123°40'1120.4
2018-Sep-16 03:27N 48°12' W 123°25'3 8.7
2018-Sep-16 03:03N 48°09' W 123°22'1 9.4
2018-Sep-16 02:59N 48°09' W 123°22'917.8
2018-Sep-16 02:30N 48°12' W 123°10'1119.7
2018-Sep-16 01:57N 48°12' W 122°54'3883.5
2018-Sep-16 01:30N 47°38' W 122°27'3 6.3
2018-Sep-16 01:02N 47°37' W 122°23'21111.8
2018-Sep-16 00:51N 47°58' W 122°33'719.5
2018-Sep-16 00:31N 47°52' W 122°28'920.1
2018-Sep-16 00:04N 47°43' W 122°27'120.0
2018-Sep-16 00:00N 47°42' W 122°27'510.6
2018-Sep-15 23:30N 47°37' W 122°23'0 0.8
2018-Sep-15 23:02N 47°38' W 122°23'0 0.0
2018-Sep-15 22:59N 47°38' W 122°23'0 0.0
2018-Sep-15 22:28N 47°38' W 122°23'0 0.0
2018-Sep-15 22:00N 47°38' W 122°23'0 0.0
2018-Sep-15 21:28N 47°38' W 122°23'0 0.0
2018-Sep-15 21:01N 47°38' W 122°23'0 0.0
2018-Sep-15 21:00N 47°38' W 122°23'0 0.0
2018-Sep-15 20:28N 47°38' W 122°23'0 0.0
2018-Sep-15 20:01N 47°38' W 122°23'0 0.0
2018-Sep-15 19:58N 47°38' W 122°23'0 0.0
2018-Sep-15 19:31N 47°38' W 122°23'0 0.1
2018-Sep-15 19:03N 47°38' W 122°23'0 0.7
2018-Sep-15 19:00N 47°38' W 122°23'0 0.1
2018-Sep-15 18:30N 47°38' W 122°23'0 0.1
2018-Sep-15 18:01N 47°38' W 122°23'0 0.0
2018-Sep-15 17:57N 47°38' W 122°23'0 0.0
2018-Sep-15 17:28N 47°38' W 122°23'0 0.0
2018-Sep-15 17:01N 47°38' W 122°23'0 0.0
2018-Sep-15 16:57N 47°38' W 122°23'0 0.0
2018-Sep-15 16:31N 47°38' W 122°23'0 0.0
2018-Sep-15 16:03N 47°38' W 122°23'0 0.0
2018-Sep-15 16:00N 47°38' W 122°23'0 0.0
2018-Sep-15 15:30N 47°38' W 122°23'0 0.0
2018-Sep-15 15:00N 47°38' W 122°23'0 0.0
2018-Sep-15 14:30N 47°38' W 122°23'0 0.0
2018-Sep-15 13:59N 47°38' W 122°23'0 0.0
2018-Sep-15 13:29N 47°38' W 122°23'0 0.0
2018-Sep-15 13:03N 47°38' W 122°23'0 0.0
2018-Sep-15 13:00N 47°38' W 122°23'1 2.7
2018-Sep-15 12:30N 47°37' W 122°25'511.1
2018-Sep-15 12:03N 47°42' W 122°28'114.5
2018-Sep-15 12:00N 47°42' W 122°28'714.7
2018-Sep-15 11:30N 47°50' W 122°28'715.6
2018-Sep-15 11:03N 47°56' W 122°32'116.0
2018-Sep-15 11:00N 47°57' W 122°33'1714.7
2018-Sep-15 09:50N 48°11' W 122°48'515.8
2018-Sep-15 09:30N 48°11' W 122°56'715.7
2018-Sep-15 09:03N 48°12' W 123°07'115.7
2018-Sep-15 09:00N 48°12' W 123°08'714.8
2018-Sep-15 08:30N 48°10' W 123°19'1011.0
2018-Sep-15 07:38N 48°17' W 123°30'319.5
2018-Sep-15 07:27N 48°20' W 123°27'512.9
2018-Sep-15 07:03N 48°25' W 123°24'0 3.2
2018-Sep-15 06:55N 48°25' W 123°24'0 0.5
2018-Sep-15 06:11N 48°25' W 123°23'0 0.0
2018-Sep-15 05:59N 48°25' W 123°23'0 0.0
2018-Sep-15 01:54N 48°25' W 123°23'2 3.9
2018-Sep-15 01:30N 48°24' W 123°25'511.5
2018-Sep-15 01:03N 48°19' W 123°25'113.5
2018-Sep-15 01:00N 48°18' W 123°25'1417.4
2018-Sep-15 00:12N 48°14' W 123°45'422.9
2018-Sep-15 00:02N 48°14' W 123°50'124.0
2018-Sep-15 00:00N 48°14' W 123°51'1122.7
2018-Sep-14 23:30N 48°18' W 124°07'1021.7
2018-Sep-14 23:03N 48°22' W 124°21'121.6
2018-Sep-14 23:00N 48°22' W 124°22'1121.3
2018-Sep-14 22:30N 48°27' W 124°37'1021.5
2018-Sep-14 22:03N 48°29' W 124°51'222.1
2018-Sep-14 21:58N 48°29' W 124°54'1021.7
2018-Sep-14 21:29N 48°29' W 125°10'921.9
2018-Sep-14 21:03N 48°34' W 125°22'122.0
2018-Sep-14 21:00N 48°34' W 125°24'1121.8
2018-Sep-14 20:30N 48°40' W 125°38'1021.3
2018-Sep-14 20:03N 48°45' W 125°50'121.1
2018-Sep-14 20:00N 48°45' W 125°52'1121.2
2018-Sep-14 19:30N 48°51' W 126°05'1021.8
2018-Sep-14 19:03N 48°57' W 126°17'122.0
2018-Sep-14 19:00N 48°57' W 126°19'1122.2
2018-Sep-14 18:30N 49°04' W 126°32'1122.9
2018-Sep-14 18:02N 49°11' W 126°45'122.9
2018-Sep-14 18:01N 49°11' W 126°46'8621.8
2018-Sep-14 14:02N 50°08' W 128°25'121.6
2018-Sep-14 14:00N 50°09' W 128°26'2421.6
2018-Sep-14 12:54N 50°28' W 128°49'821.7
2018-Sep-14 12:31N 50°35' W 128°57'1022.4
2018-Sep-14 12:03N 50°43' W 129°07'121.7
2018-Sep-14 12:00N 50°44' W 129°08'1122.1
2018-Sep-14 11:31N 50°53' W 129°16'1022.2
2018-Sep-14 11:03N 51°02' W 129°22'122.3
2018-Sep-14 11:00N 51°03' W 129°23'1121.8
2018-Sep-14 10:30N 51°13' W 129°30'1021.9
2018-Sep-14 10:03N 51°22' W 129°36'122.1
2018-Sep-14 10:00N 51°24' W 129°37'1122.3
2018-Sep-14 09:30N 51°34' W 129°44'920.7
2018-Sep-14 09:03N 51°42' W 129°49'120.4
2018-Sep-14 09:00N 51°43' W 129°50'1121.3
2018-Sep-14 08:30N 51°53' W 129°57'1021.8
2018-Sep-14 08:03N 52°02' W 130°03'121.7
2018-Sep-14 08:01N 52°03' W 130°04'1222.0
2018-Sep-14 07:27N 52°15' W 130°12'4822.1
2018-Sep-14 05:15N 52°59' W 130°43'522.6
2018-Sep-14 05:01N 53°04' W 130°46'023.4
2018-Sep-14 05:00N 53°04' W 130°46'1122.1
2018-Sep-14 04:29N 53°15' W 130°54'1122.2
2018-Sep-14 03:59N 53°25' W 131°01'1222.8
2018-Sep-14 03:27N 53°37' W 131°01'922.4
2018-Sep-14 03:03N 53°46' W 131°02'121.9
2018-Sep-14 03:00N 53°47' W 131°02'1121.5
2018-Sep-14 02:30N 53°58' W 131°02'921.1
2018-Sep-14 02:03N 54°08' W 131°02'121.1
2018-Sep-14 02:00N 54°09' W 131°02'1121.3
2018-Sep-14 01:30N 54°19' W 131°07'1020.9
2018-Sep-14 01:02N 54°27' W 131°16'121.3
2018-Sep-14 01:01N 54°28' W 131°16'1121.7
2018-Sep-14 00:30N 54°37' W 131°26'195 9.1
2018-Sep-13 03:00N 57°18' W 134°42'5322.2 090 / 61015.210.8 14.512.711.0
2018-Sep-13 00:36N 58°08' W 135°14'920.0
2018-Sep-13 00:10N 58°13' W 135°28'419.3
2018-Sep-12 23:57N 58°15' W 135°35'818.8
2018-Sep-12 23:30N 58°19' W 135°49'715.6
2018-Sep-12 23:03N 58°24' W 135°58'113.8
2018-Sep-12 23:00N 58°24' W 135°59'510.3
2018-Sep-12 22:30N 58°29' W 136°03'716.6
2018-Sep-12 22:03N 58°37' W 136°03'119.7
2018-Sep-12 22:00N 58°37' W 136°03'918.7
2018-Sep-12 21:30N 58°44' W 136°15'2 0.3
2018-Sep-12 15:58N 58°45' W 136°18'919.2
2018-Sep-12 15:30N 58°38' W 136°07'817.7
2018-Sep-12 15:03N 58°31' W 136°03'116.4
2018-Sep-12 15:00N 58°30' W 136°03'510.7
2018-Sep-12 14:30N 58°25' W 135°59'611.9
2018-Sep-12 14:00N 58°19' W 135°59'510.8
2018-Sep-12 13:30N 58°18' W 135°49'511.6
2018-Sep-12 13:03N 58°17' W 135°39'111.7
2018-Sep-12 12:59N 58°17' W 135°37'511.2
2018-Sep-12 12:30N 58°15' W 135°28'  
2018-Sep-10 03:00N 53°36' W 133°30'25221.2 040 / 34997.510.8 15.013.215.0
2018-Sep-09 15:07N 50°27' W 128°59'619.6
2018-Sep-09 14:50N 50°23' W 128°53'11221.0
2018-Sep-09 09:31N 49°11' W 126°41'122.1
2018-Sep-09 09:29N 49°10' W 126°40'921.9
2018-Sep-09 09:03N 49°05' W 126°29'122.2
2018-Sep-09 09:00N 49°04' W 126°27'1122.2
2018-Sep-09 08:30N 48°57' W 126°14'1022.3
2018-Sep-09 08:03N 48°52' W 126°01'122.8
2018-Sep-09 08:00N 48°51' W 125°60'1122.6
2018-Sep-09 07:30N 48°44' W 125°46'1022.5
2018-Sep-09 07:03N 48°39' W 125°33'122.2
2018-Sep-09 07:00N 48°38' W 125°32'1122.3
2018-Sep-09 06:30N 48°33' W 125°17'1021.5
2018-Sep-09 06:03N 48°31' W 125°02'121.4
2018-Sep-09 06:00N 48°31' W 125°01'1121.9
2018-Sep-09 05:30N 48°31' W 124°45'1022.9
2018-Sep-09 05:03N 48°27' W 124°30'122.9
2018-Sep-09 05:01N 48°27' W 124°28'1222.9
2018-Sep-09 04:30N 48°22' W 124°12'1023.0
2018-Sep-09 04:04N 48°18' W 123°58'122.8
2018-Sep-09 04:00N 48°18' W 123°56'1223.3
2018-Sep-09 03:30N 48°16' W 123°39'1020.7
2018-Sep-09 03:00N 48°12' W 123°25'713.5
2018-Sep-09 02:28N 48°10' W 123°15'819.6
2018-Sep-09 02:03N 48°13' W 123°02'120.0
2018-Sep-09 01:59N 48°12' W 123°01'2318.1
2018-Sep-09 00:44N 47°58' W 122°34'419.9
2018-Sep-09 00:30N 47°55' W 122°30'920.3
2018-Sep-09 00:03N 47°46' W 122°26'120.5
2018-Sep-09 00:00N 47°45' W 122°26'814.8
2018-Sep-08 23:29N 47°37' W 122°23'0 0.9
2018-Sep-08 23:01N 47°38' W 122°23'0 0.0
2018-Sep-08 23:00N 47°38' W 122°23'0 0.0
2018-Sep-08 22:30N 47°38' W 122°23'0 0.0
2018-Sep-08 22:03N 47°38' W 122°23'0 0.0
2018-Sep-08 21:58N 47°38' W 122°23'0 0.0
2018-Sep-08 21:30N 47°38' W 122°23'0 0.0
2018-Sep-08 21:03N 47°38' W 122°23'0 0.0
2018-Sep-08 21:00N 47°38' W 122°23'0 0.0
2018-Sep-08 20:30N 47°38' W 122°23'0 0.0
2018-Sep-08 20:03N 47°38' W 122°23'0 0.0
2018-Sep-08 20:00N 47°38' W 122°23'0 0.0
2018-Sep-08 19:29N 47°38' W 122°23'0 0.0
2018-Sep-08 19:03N 47°38' W 122°23'0 0.0
2018-Sep-08 19:00N 47°38' W 122°23'0 0.0
2018-Sep-08 18:29N 47°38' W 122°23'0 0.0
2018-Sep-08 18:01N 47°38' W 122°23'0 0.0
2018-Sep-08 17:58N 47°38' W 122°23'0 0.0
2018-Sep-08 17:30N 47°38' W 122°23'0 0.0
2018-Sep-08 17:03N 47°38' W 122°23'0 0.0
2018-Sep-08 16:59N 47°38' W 122°23'0 0.0
2018-Sep-08 16:28N 47°38' W 122°23'0 0.0
2018-Sep-08 16:02N 47°38' W 122°23'0 0.0
2018-Sep-08 15:58N 47°38' W 122°23'0 0.0
2018-Sep-08 15:29N 47°38' W 122°23'0 0.0
2018-Sep-08 15:01N 47°38' W 122°23'0 0.0
2018-Sep-08 14:58N 47°38' W 122°23'0 0.0
2018-Sep-08 14:00N 47°38' W 122°23'0 0.0
2018-Sep-08 13:30N 47°38' W 122°23'0 0.0
2018-Sep-08 13:03N 47°38' W 122°23'0 0.0
2018-Sep-08 13:00N 47°38' W 122°23'1 2.6
2018-Sep-08 12:30N 47°37' W 122°25'511.3
2018-Sep-08 12:03N 47°42' W 122°28'113.5
2018-Sep-08 12:00N 47°42' W 122°28'713.7
2018-Sep-08 11:30N 47°49' W 122°28'613.7
2018-Sep-08 11:03N 47°55' W 122°31'113.6
2018-Sep-08 11:00N 47°56' W 122°31'1213.2
2018-Sep-08 10:08N 48°06' W 122°40'113.9
2018-Sep-08 10:04N 48°07' W 122°41'115.7
2018-Sep-08 10:00N 48°07' W 122°42'816.9
2018-Sep-08 09:31N 48°11' W 122°53'917.3
2018-Sep-08 09:00N 48°12' W 123°06'917.9
2018-Sep-08 08:30N 48°10' W 123°19'510.7
2018-Sep-08 08:03N 48°11' W 123°26'113.8
2018-Sep-08 07:58N 48°11' W 123°28'816.7
2018-Sep-08 07:29N 48°19' W 123°27'611.8
2018-Sep-08 07:00N 48°25' W 123°24'1 0.1
2018-Sep-08 01:46N 48°25' W 123°23'0 1.5
2018-Sep-08 01:29N 48°25' W 123°24'410.4
2018-Sep-08 01:03N 48°20' W 123°24'113.7
2018-Sep-08 01:00N 48°20' W 123°24'812.9
2018-Sep-08 00:24N 48°14' W 123°32'720.3
2018-Sep-08 00:03N 48°13' W 123°42'120.5
2018-Sep-07 23:59N 48°14' W 123°45'1020.6
2018-Sep-07 23:30N 48°15' W 123°59'1021.5
2018-Sep-07 23:03N 48°19' W 124°13'120.8
2018-Sep-07 23:00N 48°19' W 124°14'1021.0
2018-Sep-07 22:31N 48°24' W 124°28'920.7
2018-Sep-07 22:04N 48°28' W 124°41'121.5
2018-Sep-07 22:01N 48°28' W 124°42'1121.8
2018-Sep-07 21:30N 48°29' W 124°59'1022.5
2018-Sep-07 21:03N 48°30' W 125°14'122.2
2018-Sep-07 21:00N 48°31' W 125°15'1122.0
2018-Sep-07 20:31N 48°36' W 125°30'1021.4
2018-Sep-07 20:03N 48°41' W 125°42'120.9
2018-Sep-07 20:00N 48°42' W 125°43'1020.9
2018-Sep-07 19:30N 48°47' W 125°57'1021.2
2018-Sep-07 19:04N 48°53' W 126°09'121.5
2018-Sep-07 19:01N 48°53' W 126°10'1121.6
2018-Sep-07 18:30N 48°60' W 126°23'1021.7
2018-Sep-07 18:03N 49°06' W 126°36'121.4
2018-Sep-07 18:01N 49°06' W 126°37'1121.7
2018-Sep-07 17:30N 49°13' W 126°50'1021.3
2018-Sep-07 17:02N 49°19' W 127°01'121.8
2018-Sep-07 16:59N 49°20' W 127°03'9522.4
2018-Sep-07 12:44N 50°27' W 128°48'523.4
2018-Sep-07 12:30N 50°31' W 128°53'1822.2
2018-Sep-07 11:43N 50°45' W 129°10'922.4
2018-Sep-07 11:18N 50°53' W 129°17'622.6
2018-Sep-07 11:03N 50°59' W 129°20'322.5
2018-Sep-07 10:54N 51°02' W 129°22'922.7
2018-Sep-07 10:30N 51°10' W 129°27'1022.4
2018-Sep-07 10:03N 51°19' W 129°34'122.4
2018-Sep-07 10:00N 51°20' W 129°34'1122.1
2018-Sep-07 09:30N 51°31' W 129°42'1022.9
2018-Sep-07 09:03N 51°40' W 129°48'  

Dump ship's entire track history